メインページ
METAR-TAF:

METAR-TAF

空港 :

ヒロ国際空港

ヒロ, ハワイ州, アメリカ合衆国

緯度: 19-43-20N, 経度: 155-03-21W, 海抜: 11m

現時点の気象観測

当レポートは49分前の10:53(UTC)に作成
西/南西の風 5kt
気温 21°C
湿度 83%
気圧 1016 hPa
視程: 16.1km
高度2600ftの雲はほとんどない

METAR: PHTO 181053Z AUTO 24005KT 10SM FEW026 21/18 A3001 RMK AO2 SLP161 T02110183 TSNO

時間: 01:42 (11:42 UTC)

予報

当レポートは6時間11分前の05:31(UTC)に作成
予報は18日の 06時(UTC)から 19日の 06時(UTC)まで有効
南西の風 5kt
視程: 10km
高度2000ftの雲は散在している
高度5000ftの千切れ雲あり
18日の 2200時(UTC)から
東/北東の風 8kt
視程: 10km
高度2500ftの雲は散在している
高度5000ftの雲は散在している
高度25000ftの千切れ雲あり

TAF: PHTO 180531Z 1806/1906 23005KT P6SM SCT020 BKN050 FM182200 07008KT P6SM SCT025 SCT050 BKN250

4,000以上の空港の気象観測と天気予報(METAR報とTAF報)

利用可能な観測所は地図上に黄色い丸と赤い丸で示す。

丸の上にカーソルを重ねると観測所名を参照できる。

次にクリックすると気象観測と天気予報を参照できる。

マップの切り替え:黒色「×」印の緑ボタンをクリックして拡大、「-」印の緑ボタンをクリックして縮小、緑色の三角印をクリックして隣りの地図に切り替え


METAR-TAF: